Hermanville, MS (39086)

9:38 PM CDT on September 20, 2014 (GMT -0500)
Lake Park | Change Station
CLOSE
Current Station
Personal Weather Station
Location: Vicksburg, MS
Elevation: 249 ft
Nearby Weather Stations

Elev 249 ft 32.24 °N, 90.83 °W | Updated 2 minutes ago

Clear
Clear
75.9 °F
Feels Like 77 °F
N
0.0
Wind Variable Wind from SW
Gusts 0.0 mph

Today
High -- | Low -- °F
--% Chance of Precip.
Yesterday
High -- | Low -- °F
Precip. -- in
6:50 AM 7:02 PM
Waning Crescent, 9% visible
Pressure 29.99 in
Visibility 10.0 miles
Clouds Clear
Heat Index 77 °F
Dew Point 68 °F
Humidity 77%
Rainfall 0.00 in
Snow Depth Not available.
UV 0 out of 12
Pollen 10.60 out of 12
Air Quality Not available.
Flu Activity Not available.
METAR KVKS 210215Z AUTO 00000KT 10SM CLR 23/22 A2999 RMK A01

More Conditions Fewer Conditions

Pressure 29.99 in
Visibility 10.0 miles
Clouds Clear
Heat Index 77 °F
Dew Point 68 °F
Humidity 77%
Rainfall 0.00 in
Snow Depth Not available.
UV 0 out of 12
Pollen 10.60 out of 12
Air Quality Not available.
Flu Activity Not available.
METAR KVKS 210215Z AUTO 00000KT 10SM CLR 23/22 A2999 RMK A01

More Conditions Fewer Conditions

10-Day Weather Forecast

Almanac

Astronomy

Sep. 20, 2014 Rise Set
Actual Time 6:50 AM CDT 7:02 PM CDT
Civil Twilight 6:25 AM CDT 7:26 PM CDT
Nautical Twilight 5:57 AM CDT 7:55 PM CDT
Astronomical Twilight 5:28 AM CDT 8:24 PM CDT
Moon 3:39 AM CDT (9/20) 4:58 PM CDT (9/20)
Length of Visible Light 13h 01m
Length of Day
12h 12m
Tomorrow will be 1m 57s shorter.
Waning Crescent, 9% of the Moon is Illuminated
Today
Waning Crescent
Sep 24
New
Oct 1
First Quarter
Oct 8
Full
Oct 15
Last Quarter

Today's Extremes

State Highs State Lows

Community

WunderPhotos

Upload Photos

1,755,032 photos uploaded!

WunderBlogs® & News

Nearby

Snow Depth

Station Depth Elevation
No new snow has been reported.

Earthquake Activity

City Distance Mag. Time & Date
No recent earthquake activity has been reported nearby.
Minimum magnitude displayed is 2.5.

Coastal Water Temperatures

Place Temperature
No Stations Reporting

Nearby Weather Stations